Flugplatz Hettstadt

Für EDGH sind keine METAR/TAF Berichte vorhanden.
Es werden die Flugwettermeldungen vom Flugplatz Niederstetten Airport in 46 km Entfernung angezeigt.

Bericht für ETHN

vom 26.09. um 23:20 UTC

Wind 14 kt aus 250°

Sichtweite 7000 m

schwacher Regen

aufgebrochene Bewölkung in 200 ft

aufgelockert bewölkt in 800 ft

bedeckt in 3000 ft

Temperatur 7.0°C

Taupunkt 7.0°C

Luftfeuchtigkeit 100%

Luftdruck 998 hPa

ETHN 262320Z 25014KT 7000 -RA BKN002 SCT008 OVC030 07/07 Q0998 AMB
Keine Prognose (TAF) verfügbar.
Impressum